Main page
METAR-TAF:

METAR-TAF

Airports :

Aeroporto di Sarzana-Luni

Sarzana, Italy

latitude: 44-05N, longitude: 009-59E, elevation: 9 m

Current weather observation

The report was made 1 hour and 11 minutes ago, at 11:55 UTC
Wind 3 kt from the North/Northwest
Temperature 10°C
Humidity 82%
Pressure 1013 hPa
Visibility 10 km or more
Broken clouds at a height of 4000 ft

METAR: LIQW 211155Z 33003KT 9999 BKN040 10/07 Q1013 RMK OVC SCT070 VIS MIN 9999 WIND THR18 33004KT BLU

Time: 14:06 (13:06 UTC)


TAF: missing

Weather observations and forecasts of more than 4000 airports (METAR and TAF reports).

The available stations are represented by yellow and red dots on the map.

Hover mouse over dot to see the name of the station.

Then click to see weather observations and forecasts.

To change the map : click on the green buttons with a black cross to zoom in, on the green button with a dash to zoom out, or on the green arrows for adjacent maps.


METAR-TAF: